createdAt,value
2023-04-19T00:00:52.945Z,44.18
2023-04-19T00:01:55.225Z,44.06
2023-04-19T00:02:57.535Z,44.36
2023-04-19T00:04:00.300Z,44.58
2023-04-19T00:05:02.982Z,44.46
2023-04-19T00:06:08.745Z,44.45
2023-04-19T00:07:11.207Z,44.42
2023-04-19T00:08:14.208Z,44.13
2023-04-19T00:09:16.440Z,44.26
2023-04-19T00:10:18.848Z,44.09
2023-04-19T00:11:21.160Z,44.37
2023-04-19T00:12:23.327Z,44.04
2023-04-19T00:13:25.521Z,44.36
2023-04-19T00:14:27.750Z,44.17
2023-04-19T00:15:30.005Z,44.72
2023-04-19T00:16:32.037Z,44.78
2023-04-19T00:17:35.204Z,44.53
2023-04-19T00:18:38.906Z,44.76
2023-04-19T00:19:41.706Z,44.46
2023-04-19T00:20:44.883Z,44.52
2023-04-19T00:21:47.042Z,44.25
2023-04-19T00:22:49.095Z,44.38
2023-04-19T00:23:54.176Z,44.52
2023-04-19T00:24:56.598Z,44.56
2023-04-19T00:25:58.824Z,44.47
2023-04-19T00:27:01.024Z,44.64
2023-04-19T00:28:04.138Z,44.73
2023-04-19T00:29:06.339Z,44.52
2023-04-19T00:30:09.013Z,44.68
2023-04-19T00:31:12.280Z,44.70
2023-04-19T00:32:14.451Z,44.75
2023-04-19T00:33:16.709Z,44.87
2023-04-19T00:34:18.974Z,44.63
2023-04-19T00:35:21.123Z,44.62
2023-04-19T00:36:23.796Z,44.85
2023-04-19T00:37:25.951Z,44.72
2023-04-19T00:38:28.027Z,44.64
2023-04-19T00:39:30.255Z,44.57
2023-04-19T00:41:59.304Z,44.25
2023-04-19T00:43:01.268Z,44.29
2023-04-19T00:44:03.469Z,43.89
2023-04-19T00:45:06.138Z,43.96
2023-04-19T00:46:08.143Z,43.49
2023-04-19T00:47:11.019Z,43.79
2023-04-19T00:48:14.921Z,43.88
2023-04-19T00:49:18.380Z,43.49
2023-04-19T00:50:20.666Z,43.42
2023-04-19T00:51:22.870Z,43.68
2023-04-19T00:52:26.363Z,43.81
2023-04-19T00:53:28.656Z,43.54
2023-04-19T00:54:30.856Z,43.62
2023-04-19T00:55:33.617Z,43.56
2023-04-19T00:56:36.333Z,43.25
2023-04-19T00:57:39.111Z,43.44
2023-04-19T00:58:41.210Z,43.74
2023-04-19T00:59:43.638Z,43.69
2023-04-19T01:00:45.561Z,43.93
2023-04-19T01:01:48.168Z,44.14
2023-04-19T01:02:50.585Z,43.84
2023-04-19T01:03:53.382Z,43.85
2023-04-19T01:04:55.988Z,44.11
2023-04-19T01:05:58.347Z,43.61
2023-04-19T01:07:01.753Z,43.95
2023-04-19T01:08:03.959Z,43.73
2023-04-19T01:09:05.992Z,43.74
2023-04-19T01:10:08.467Z,43.88
2023-04-19T01:11:10.578Z,43.71
2023-04-19T01:12:12.842Z,43.84
2023-04-19T01:13:14.941Z,43.81
2023-04-19T01:14:17.502Z,43.64
2023-04-19T01:15:19.873Z,43.75
2023-04-19T01:16:22.219Z,43.84
2023-04-19T01:17:24.732Z,43.84
2023-04-19T01:18:29.662Z,43.67
2023-04-19T01:19:31.920Z,43.88
2023-04-19T01:20:34.121Z,43.91
2023-04-19T01:21:39.651Z,43.91
2023-04-19T01:22:42.011Z,43.92
2023-04-19T01:23:44.036Z,43.93
2023-04-19T01:24:46.298Z,43.93
2023-04-19T01:25:48.391Z,43.93
2023-04-19T01:26:50.626Z,43.79
2023-04-19T01:27:52.668Z,44.04
2023-04-19T01:28:55.066Z,43.96
2023-04-19T01:29:57.196Z,43.88
2023-04-19T01:30:59.995Z,43.81
2023-04-19T01:32:01.968Z,43.79
2023-04-19T01:33:04.192Z,43.86
2023-04-19T01:34:06.534Z,44.16
2023-04-19T01:35:11.545Z,44.02
2023-04-19T01:36:13.609Z,43.74
2023-04-19T01:37:15.982Z,44.25
2023-04-19T01:38:18.210Z,43.95
2023-04-19T01:39:20.556Z,43.76
2023-04-19T01:40:26.488Z,43.81
2023-04-19T01:41:29.873Z,44.24
2023-04-19T01:42:31.989Z,44.00
2023-04-19T01:43:34.157Z,44.10
2023-04-19T01:44:36.201Z,44.19
2023-04-19T01:45:38.369Z,44.10
2023-04-19T01:46:42.959Z,44.07
2023-04-19T01:47:45.409Z,44.08
2023-04-19T01:48:47.528Z,44.32
2023-04-19T01:49:49.738Z,44.28
2023-04-19T01:50:51.737Z,44.31
2023-04-19T01:51:53.807Z,44.34
2023-04-19T01:52:55.917Z,44.46
2023-04-19T01:53:58.421Z,44.80
2023-04-19T01:55:00.529Z,44.54
2023-04-19T01:56:02.832Z,44.38
2023-04-19T01:57:04.951Z,44.51
2023-04-19T01:58:07.511Z,44.67
2023-04-19T01:59:09.622Z,44.50
2023-04-19T02:00:12.589Z,44.45
2023-04-19T02:01:14.678Z,44.95
2023-04-19T02:02:17.114Z,44.78
2023-04-19T02:03:19.517Z,44.76
2023-04-19T02:04:24.511Z,44.85
2023-04-19T02:05:26.732Z,44.51
2023-04-19T02:06:28.906Z,45.01
2023-04-19T02:07:31.026Z,44.93
2023-04-19T02:08:33.648Z,44.84
2023-04-19T02:09:39.469Z,44.88
2023-04-19T02:10:41.687Z,44.91
2023-04-19T02:11:43.826Z,44.93
2023-04-19T02:12:46.022Z,44.71
2023-04-19T02:13:48.261Z,44.73
2023-04-19T02:14:50.547Z,44.98
2023-04-19T02:15:52.729Z,45.25
2023-04-19T02:16:54.870Z,45.32
2023-04-19T02:17:57.141Z,45.24
2023-04-19T02:18:59.163Z,45.17
2023-04-19T02:20:01.534Z,44.78
2023-04-19T02:21:04.228Z,44.96
2023-04-19T02:22:06.534Z,45.05
2023-04-19T02:23:08.458Z,45.08
2023-04-19T02:24:10.694Z,45.53
2023-04-19T02:25:12.982Z,45.04
2023-04-19T02:26:15.125Z,44.92
2023-04-19T02:27:17.578Z,45.24
2023-04-19T02:28:19.705Z,45.11
2023-04-19T02:29:21.706Z,45.04
2023-04-19T02:30:23.924Z,45.38
2023-04-19T02:31:26.140Z,45.29
2023-04-19T02:32:28.437Z,44.84
2023-04-19T02:33:30.496Z,44.80
2023-04-19T02:34:36.423Z,44.69
2023-04-19T02:35:38.702Z,44.83
2023-04-19T02:36:40.821Z,44.97
2023-04-19T02:37:42.917Z,44.80
2023-04-19T02:38:45.199Z,44.82
2023-04-19T02:39:47.521Z,44.61
2023-04-19T02:40:49.729Z,44.93
2023-04-19T02:41:51.737Z,44.64
2023-04-19T02:42:53.963Z,44.68
2023-04-19T02:43:56.481Z,44.49
2023-04-19T02:44:58.744Z,44.18
2023-04-19T02:46:01.317Z,44.29
2023-04-19T02:47:03.577Z,44.55
2023-04-19T02:48:06.285Z,44.04
2023-04-19T02:49:09.516Z,44.20
2023-04-19T02:50:12.062Z,43.98
2023-04-19T02:51:18.065Z,44.12
2023-04-19T02:52:20.029Z,43.95
2023-04-19T02:53:22.125Z,43.78
2023-04-19T02:54:24.284Z,43.95
2023-04-19T02:55:26.484Z,43.79
2023-04-19T02:56:28.604Z,43.32
2023-04-19T02:57:31.071Z,43.37
2023-04-19T02:58:33.229Z,43.32
2023-04-19T02:59:35.480Z,43.00
2023-04-19T03:00:37.699Z,42.87
2023-04-19T03:01:40.054Z,42.58
2023-04-19T03:02:43.909Z,42.41
2023-04-19T03:03:46.085Z,42.32
2023-04-19T03:04:48.956Z,42.50
2023-04-19T03:05:51.199Z,42.53
2023-04-19T03:06:53.352Z,42.58
2023-04-19T03:07:55.472Z,42.62
2023-04-19T03:08:57.446Z,42.98
2023-04-19T03:09:59.603Z,42.77
2023-04-19T03:11:01.671Z,42.57
2023-04-19T03:12:04.381Z,42.89
2023-04-19T03:13:06.385Z,42.81
2023-04-19T03:14:08.533Z,42.39
2023-04-19T03:15:11.251Z,42.51
2023-04-19T03:16:13.342Z,42.41
2023-04-19T03:17:15.652Z,42.21
2023-04-19T03:18:18.201Z,42.08
2023-04-19T03:19:20.284Z,41.88
2023-04-19T03:20:22.378Z,41.57
2023-04-19T03:21:27.532Z,41.60
2023-04-19T03:22:29.926Z,41.37
2023-04-19T03:23:32.295Z,41.36
2023-04-19T03:24:37.077Z,41.39
2023-04-19T03:25:40.095Z,41.51
2023-04-19T03:26:42.159Z,41.46
2023-04-19T03:27:45.652Z,41.38
2023-04-19T03:28:48.724Z,41.19
2023-04-19T03:29:50.832Z,41.33
2023-04-19T03:30:53.146Z,41.05
2023-04-19T03:31:55.184Z,40.86
2023-04-19T03:32:58.916Z,40.23
2023-04-19T03:34:00.993Z,40.32
2023-04-19T03:35:03.730Z,39.94
2023-04-19T03:36:07.189Z,40.03
2023-04-19T03:37:09.450Z,39.96
2023-04-19T03:38:11.559Z,39.95
2023-04-19T03:39:13.774Z,39.95
2023-04-19T03:40:15.943Z,39.77
2023-04-19T03:41:25.971Z,39.72
2023-04-19T03:42:29.175Z,39.57
2023-04-19T03:43:31.423Z,39.30
2023-04-19T03:44:33.884Z,39.66
2023-04-19T03:45:36.100Z,39.66
2023-04-19T03:46:38.224Z,39.50
2023-04-19T03:47:40.548Z,39.60
2023-04-19T03:48:42.593Z,39.22
2023-04-19T03:49:44.706Z,39.21
2023-04-19T03:50:46.781Z,39.52
2023-04-19T03:51:48.927Z,39.47
2023-04-19T03:52:50.991Z,39.12
2023-04-19T03:53:53.078Z,39.28
2023-04-19T03:54:55.437Z,38.92
2023-04-19T03:55:57.569Z,38.82
2023-04-19T03:56:59.756Z,38.65
2023-04-19T03:58:02.007Z,38.56
2023-04-19T03:59:04.019Z,38.50
2023-04-19T04:00:09.703Z,38.39
2023-04-19T04:01:21.613Z,38.33
2023-04-19T04:02:24.050Z,37.88
2023-04-19T04:03:26.666Z,37.92
2023-04-19T04:04:29.165Z,37.74
2023-04-19T04:05:31.566Z,37.98
2023-04-19T04:06:33.898Z,37.68
2023-04-19T04:07:35.800Z,37.52
2023-04-19T04:08:37.999Z,37.52
2023-04-19T04:09:40.083Z,37.34
2023-04-19T04:10:42.306Z,37.61
2023-04-19T04:11:44.456Z,37.31
2023-04-19T04:12:46.639Z,37.45
2023-04-19T04:13:49.773Z,36.94
2023-04-19T04:14:52.052Z,36.87
2023-04-19T04:15:54.586Z,36.51
2023-04-19T04:16:56.812Z,36.30
2023-04-19T04:17:58.910Z,36.22
2023-04-19T04:19:00.899Z,36.44
2023-04-19T04:20:03.309Z,36.10
2023-04-19T04:21:05.839Z,35.88
2023-04-19T04:22:07.836Z,35.55
2023-04-19T04:23:10.947Z,35.21
2023-04-19T04:24:13.051Z,35.04
2023-04-19T04:25:18.678Z,34.54
2023-04-19T04:26:22.108Z,34.75
2023-04-19T04:27:24.252Z,34.80
2023-04-19T04:28:26.896Z,34.41
2023-04-19T04:29:29.185Z,34.44
2023-04-19T04:30:31.189Z,34.55
2023-04-19T04:31:33.197Z,34.19
2023-04-19T04:32:36.072Z,33.85
2023-04-19T04:33:38.475Z,33.36
2023-04-19T04:34:40.935Z,33.21
2023-04-19T04:35:43.702Z,33.08
2023-04-19T04:36:45.749Z,33.62
2023-04-19T04:37:48.894Z,33.35
2023-04-19T04:38:51.114Z,33.27
2023-04-19T04:39:53.509Z,33.18
2023-04-19T04:40:56.524Z,33.34
2023-04-19T04:41:59.698Z,33.29
2023-04-19T04:43:04.686Z,33.59
2023-04-19T04:44:12.498Z,33.07
2023-04-19T04:45:18.307Z,32.73
2023-04-19T04:46:21.173Z,32.84
2023-04-19T04:47:23.082Z,33.02
2023-04-19T04:48:25.496Z,32.59
2023-04-19T04:49:27.514Z,32.40
2023-04-19T04:50:29.603Z,32.28
2023-04-19T04:51:32.590Z,31.87
2023-04-19T04:52:34.592Z,31.48
2023-04-19T04:53:36.640Z,31.65
2023-04-19T04:54:38.735Z,31.62
2023-04-19T04:55:40.962Z,31.91
2023-04-19T04:56:43.133Z,32.02
2023-04-19T04:57:45.263Z,32.47
2023-04-19T04:58:47.216Z,32.80
2023-04-19T04:59:49.195Z,32.94
2023-04-19T05:00:51.555Z,33.20
2023-04-19T05:01:53.649Z,33.19
2023-04-19T05:02:55.686Z,33.51
2023-04-19T05:03:57.753Z,33.25
2023-04-19T05:04:59.945Z,33.40
2023-04-19T05:06:01.863Z,33.61
2023-04-19T05:07:03.914Z,33.48
2023-04-19T05:08:06.535Z,33.45
2023-04-19T05:09:08.603Z,33.36
2023-04-19T05:10:10.951Z,33.38
2023-04-19T05:11:13.065Z,33.34
2023-04-19T05:12:15.441Z,33.14
2023-04-19T05:13:17.466Z,33.11
2023-04-19T05:14:19.350Z,33.87
2023-04-19T05:15:21.730Z,33.35
2023-04-19T05:16:23.763Z,33.14
2023-04-19T05:17:25.914Z,33.24
2023-04-19T05:18:27.866Z,33.74
2023-04-19T05:19:29.881Z,33.69
2023-04-19T05:20:32.017Z,33.55
2023-04-19T05:21:34.839Z,33.13
2023-04-19T05:22:36.944Z,34.93
2023-04-19T05:23:38.983Z,33.60
2023-04-19T05:24:42.383Z,33.21
2023-04-19T05:25:44.695Z,33.31
2023-04-19T05:26:46.915Z,33.03
2023-04-19T05:27:48.864Z,32.71
2023-04-19T05:28:50.818Z,33.15
2023-04-19T05:29:53.764Z,32.69
2023-04-19T05:30:55.760Z,32.20
2023-04-19T05:31:58.424Z,31.93
2023-04-19T05:33:00.760Z,31.62
2023-04-19T05:34:02.845Z,32.21
2023-04-19T05:35:05.163Z,32.21
2023-04-19T05:36:08.232Z,32.45
2023-04-19T05:37:10.084Z,32.43
2023-04-19T05:38:12.232Z,32.24
2023-04-19T05:39:14.226Z,32.43
2023-04-19T05:40:16.317Z,32.11
2023-04-19T05:41:18.327Z,32.06
2023-04-19T05:42:20.747Z,32.30
2023-04-19T05:43:23.030Z,32.85
2023-04-19T05:44:25.131Z,31.92
2023-04-19T05:45:27.066Z,32.25
2023-04-19T05:46:29.076Z,32.20
2023-04-19T05:47:31.005Z,32.61
2023-04-19T05:48:33.102Z,32.49
2023-04-19T05:49:36.229Z,32.51
2023-04-19T05:50:38.261Z,32.34
2023-04-19T05:51:40.251Z,32.59
2023-04-19T05:52:42.296Z,32.52
2023-04-19T05:53:45.141Z,33.41
2023-04-19T05:54:47.256Z,32.11
2023-04-19T05:55:51.042Z,31.72
2023-04-19T05:56:53.035Z,31.80
2023-04-19T05:57:54.984Z,32.04
2023-04-19T05:58:57.055Z,32.23
2023-04-19T06:01:08.564Z,31.89
2023-04-19T06:02:11.060Z,31.62
2023-04-19T06:03:13.488Z,31.31
2023-04-19T06:04:16.087Z,31.52
2023-04-19T06:05:18.785Z,31.86
2023-04-19T06:06:23.460Z,31.81
2023-04-19T06:07:31.663Z,31.90
2023-04-19T06:08:34.895Z,32.01
2023-04-19T06:09:36.899Z,32.00
2023-04-19T06:10:52.689Z,31.67
2023-04-19T06:11:56.936Z,31.70
2023-04-19T06:12:58.971Z,32.17
2023-04-19T06:14:01.032Z,31.90
2023-04-19T06:15:03.029Z,31.73
2023-04-19T06:16:08.111Z,34.08
2023-04-19T06:17:10.309Z,32.38
2023-04-19T06:18:19.752Z,32.59
2023-04-19T06:19:22.338Z,32.12
2023-04-19T06:20:24.385Z,31.72
2023-04-19T06:21:27.128Z,32.00
2023-04-19T06:22:29.297Z,31.62
2023-04-19T06:23:31.144Z,31.66
2023-04-19T06:24:35.310Z,31.90
2023-04-19T06:25:37.408Z,31.85
2023-04-19T06:26:39.453Z,31.78
2023-04-19T06:27:41.496Z,31.91
2023-04-19T06:28:43.640Z,31.43
2023-04-19T06:29:45.829Z,31.60
2023-04-19T06:30:48.218Z,31.70
2023-04-19T06:31:50.498Z,31.74
2023-04-19T06:32:52.862Z,32.11
2023-04-19T06:33:54.914Z,31.64
2023-04-19T06:34:57.032Z,31.86
2023-04-19T06:35:59.007Z,32.00
2023-04-19T06:37:00.969Z,31.79
2023-04-19T06:38:02.996Z,31.84
2023-04-19T06:39:05.355Z,31.33
2023-04-19T06:40:08.574Z,31.39
2023-04-19T06:41:11.276Z,31.01
2023-04-19T06:42:13.356Z,30.93
2023-04-19T06:43:15.593Z,31.14
2023-04-19T06:44:17.798Z,31.31
2023-04-19T06:45:20.214Z,31.42
2023-04-19T06:46:22.345Z,31.41
2023-04-19T06:47:24.390Z,31.27
2023-04-19T06:48:26.564Z,31.39
2023-04-19T06:49:28.638Z,31.38
2023-04-19T06:50:31.037Z,31.50
2023-04-19T06:51:34.030Z,31.43
2023-04-19T06:52:35.902Z,31.28
2023-04-19T06:53:38.130Z,31.26
2023-04-19T06:54:40.103Z,31.41
2023-04-19T06:55:42.303Z,31.40
2023-04-19T06:56:48.894Z,31.85
2023-04-19T06:57:51.054Z,31.95
2023-04-19T06:58:52.911Z,31.94
2023-04-19T06:59:55.681Z,31.52
2023-04-19T07:00:57.912Z,31.76
2023-04-19T07:01:59.964Z,31.31
2023-04-19T07:03:02.253Z,31.49
2023-04-19T07:04:04.691Z,32.18
2023-04-19T07:05:08.078Z,31.85
2023-04-19T07:06:10.663Z,31.40
2023-04-19T07:07:12.539Z,31.45
2023-04-19T07:08:14.975Z,31.53
2023-04-19T07:09:17.153Z,31.83
2023-04-19T07:10:19.173Z,31.43
2023-04-19T07:11:22.420Z,31.15
2023-04-19T07:12:25.175Z,31.72
2023-04-19T07:13:27.165Z,31.65
2023-04-19T07:14:29.256Z,31.78
2023-04-19T07:15:31.395Z,31.99
2023-04-19T07:16:33.613Z,31.50
2023-04-19T07:17:37.093Z,31.70
2023-04-19T07:18:39.116Z,31.52
2023-04-19T07:19:41.076Z,31.26
2023-04-19T07:20:46.912Z,32.37
2023-04-19T07:21:49.192Z,31.16
2023-04-19T07:22:51.263Z,30.68
2023-04-19T07:23:53.199Z,30.78
2023-04-19T07:24:55.375Z,31.47
2023-04-19T07:25:57.384Z,31.28
2023-04-19T07:26:59.546Z,30.59
2023-04-19T07:28:01.717Z,31.54
2023-04-19T07:29:03.950Z,30.92
2023-04-19T07:30:07.168Z,31.20
2023-04-19T07:31:15.938Z,31.14
2023-04-19T07:32:17.896Z,32.67
2023-04-19T07:33:19.996Z,33.34
2023-04-19T07:34:22.205Z,31.80
2023-04-19T07:35:24.221Z,31.57
2023-04-19T07:36:26.364Z,31.72
2023-04-19T07:37:28.725Z,31.45
2023-04-19T07:38:30.721Z,30.84
2023-04-19T07:39:33.399Z,30.45
2023-04-19T07:40:35.876Z,30.36
2023-04-19T07:41:38.562Z,30.50
2023-04-19T07:42:40.721Z,30.51
2023-04-19T07:43:42.665Z,31.11
2023-04-19T07:44:44.537Z,30.74
2023-04-19T07:45:46.588Z,31.04
2023-04-19T07:46:48.564Z,30.81
2023-04-19T07:47:50.925Z,31.95
2023-04-19T07:48:52.875Z,31.97
2023-04-19T07:49:56.164Z,31.50
2023-04-19T07:50:58.168Z,32.23
2023-04-19T07:52:02.029Z,31.35
2023-04-19T07:53:03.875Z,31.27
2023-04-19T07:54:05.939Z,31.35
2023-04-19T07:55:08.360Z,31.64
2023-04-19T07:56:13.004Z,30.10
2023-04-19T07:57:15.590Z,29.61
2023-04-19T07:58:17.565Z,30.42
2023-04-19T07:59:19.559Z,33.71
2023-04-19T08:00:24.452Z,29.95
2023-04-19T08:01:26.558Z,29.85
2023-04-19T08:02:28.595Z,29.54
2023-04-19T08:03:34.866Z,29.56
2023-04-19T08:04:38.162Z,29.64
2023-04-19T08:05:40.479Z,29.62
2023-04-19T08:06:42.502Z,31.43
2023-04-19T08:07:44.886Z,30.48
2023-04-19T08:08:47.803Z,29.97
2023-04-19T08:09:51.106Z,30.23
2023-04-19T08:10:55.375Z,30.28
2023-04-19T08:11:57.872Z,29.84
2023-04-19T08:13:05.818Z,30.27
2023-04-19T08:14:21.787Z,30.15
2023-04-19T08:16:13.024Z,29.47
2023-04-19T08:17:57.434Z,29.71
2023-04-19T08:18:59.669Z,29.92
2023-04-19T08:20:01.670Z,29.75
2023-04-19T08:21:05.787Z,29.83
2023-04-19T08:22:07.705Z,29.82
2023-04-19T08:23:20.468Z,29.70
2023-04-19T08:24:24.696Z,29.88
2023-04-19T08:25:28.675Z,30.18
2023-04-19T08:26:30.762Z,29.83
2023-04-19T08:27:32.752Z,29.16
2023-04-19T08:28:34.716Z,29.23
2023-04-19T08:29:37.526Z,29.23
2023-04-19T08:30:40.845Z,30.97
2023-04-19T08:31:44.305Z,29.29
2023-04-19T08:32:46.535Z,30.18
2023-04-19T08:33:48.562Z,29.45
2023-04-19T08:34:50.577Z,28.43
2023-04-19T08:35:52.433Z,28.23
2023-04-19T08:37:03.466Z,28.14
2023-04-19T08:38:06.648Z,28.81
2023-04-19T08:39:17.635Z,28.22
2023-04-19T08:40:26.978Z,27.85
2023-04-19T08:41:31.388Z,27.75
2023-04-19T08:42:36.911Z,28.10
2023-04-19T08:43:42.263Z,30.36
2023-04-19T08:45:05.625Z,27.84
2023-04-19T08:46:09.686Z,26.95
2023-04-19T08:47:20.253Z,27.22
2023-04-19T08:48:30.423Z,28.17
2023-04-19T08:49:36.896Z,27.48
2023-04-19T08:50:52.449Z,27.01
2023-04-19T08:52:03.653Z,26.79
2023-04-19T08:53:23.692Z,26.27
2023-04-19T08:54:32.065Z,26.61
2023-04-19T08:55:34.270Z,26.50
2023-04-19T08:56:36.547Z,26.44
2023-04-19T08:57:38.665Z,27.30
2023-04-19T08:58:57.812Z,26.37
2023-04-19T09:00:11.598Z,27.66
2023-04-19T09:01:22.866Z,26.42
2023-04-19T09:04:37.112Z,26.23
2023-04-19T09:08:48.351Z,26.55
2023-04-19T09:10:17.003Z,26.73
2023-04-19T09:14:18.648Z,26.99
2023-04-19T09:15:46.287Z,26.83
2023-04-19T09:17:17.385Z,27.08
2023-04-19T09:46:11.778Z,24.60
2023-04-19T09:49:25.082Z,25.11
2023-04-19T09:52:01.179Z,24.46
2023-04-19T09:53:20.182Z,24.44
2023-04-19T10:02:52.288Z,23.88
2023-04-19T10:03:55.976Z,24.07
2023-04-19T10:05:16.409Z,24.12
2023-04-19T10:07:30.494Z,24.49
2023-04-19T10:08:33.463Z,25.45
2023-04-19T10:09:42.761Z,25.02
2023-04-19T10:10:55.610Z,25.09
2023-04-19T10:12:06.657Z,25.12
2023-04-19T10:13:26.842Z,25.17
2023-04-19T10:14:33.496Z,26.16
2023-04-19T10:15:50.042Z,25.62
2023-04-19T10:16:56.948Z,25.37
2023-04-19T10:17:59.928Z,25.42
2023-04-19T10:19:04.809Z,25.41
2023-04-19T10:20:19.145Z,26.07
2023-04-19T10:21:21.810Z,25.80
2023-04-19T10:22:25.011Z,25.65
2023-04-19T10:23:27.734Z,25.55
2023-04-19T10:24:29.871Z,25.66
2023-04-19T10:25:31.833Z,25.74
2023-04-19T10:27:11.607Z,25.81
2023-04-19T10:28:14.162Z,25.36
2023-04-19T10:29:16.487Z,25.23
2023-04-19T10:30:23.281Z,25.13
2023-04-19T10:31:26.995Z,25.07
2023-04-19T10:32:42.818Z,24.82
2023-04-19T10:33:44.906Z,24.87
2023-04-19T10:34:47.433Z,24.67
2023-04-19T10:35:50.380Z,24.65
2023-04-19T10:36:52.297Z,24.52
2023-04-19T10:38:07.971Z,24.74
2023-04-19T10:39:50.535Z,24.62
2023-04-19T10:40:56.383Z,24.39
2023-04-19T10:42:02.312Z,24.50
2023-04-19T10:43:13.802Z,24.36
2023-04-19T10:44:15.825Z,24.39
2023-04-19T10:45:35.205Z,24.52
2023-04-19T10:46:42.411Z,24.42
2023-04-19T10:47:47.320Z,24.72
2023-04-19T10:48:59.025Z,24.69
2023-04-19T10:50:04.912Z,24.53
2023-04-19T10:51:19.411Z,25.02
2023-04-19T10:52:31.404Z,24.50
2023-04-19T10:53:59.243Z,24.68
2023-04-19T10:55:04.359Z,24.27
2023-04-19T10:56:06.929Z,24.48
2023-04-19T10:57:11.493Z,24.15
2023-04-19T10:58:13.666Z,24.51
2023-04-19T10:59:22.227Z,23.92
2023-04-19T11:00:26.258Z,23.93
2023-04-19T11:01:40.555Z,24.10
2023-04-19T11:06:54.460Z,23.89
2023-04-19T11:10:58.462Z,24.29
2023-04-19T11:16:45.147Z,24.74
2023-04-19T11:22:46.648Z,26.24
2023-04-19T11:33:12.975Z,25.99
2023-04-19T11:39:42.245Z,27.78
2023-04-19T11:45:51.396Z,28.63
2023-04-19T11:48:23.555Z,28.53
2023-04-19T11:50:58.937Z,28.66
2023-04-19T11:52:39.551Z,28.82
2023-04-19T12:00:39.255Z,28.40
2023-04-19T12:01:49.209Z,28.83
2023-04-19T12:02:52.593Z,28.03
2023-04-19T12:03:59.408Z,28.01
2023-04-19T12:05:08.929Z,28.07
2023-04-19T12:06:13.829Z,27.73
2023-04-19T12:07:15.875Z,28.02
2023-04-19T12:08:17.996Z,27.95
2023-04-19T12:09:22.891Z,27.69
2023-04-19T12:10:25.982Z,27.66
2023-04-19T12:11:46.769Z,27.62
2023-04-19T12:12:48.910Z,29.04
2023-04-19T12:14:10.647Z,27.54
2023-04-19T12:15:12.525Z,27.58
2023-04-19T12:16:14.774Z,27.61
2023-04-19T12:17:17.008Z,27.39
2023-04-19T12:18:19.185Z,28.15
2023-04-19T12:19:21.131Z,27.12
2023-04-19T12:20:34.655Z,27.05
2023-04-19T12:21:36.589Z,26.84
2023-04-19T12:22:38.606Z,26.69
2023-04-19T12:23:40.555Z,26.91
2023-04-19T12:24:44.197Z,27.22
2023-04-19T12:25:48.270Z,27.45
2023-04-19T12:27:04.235Z,26.62
2023-04-19T12:28:06.691Z,26.35
2023-04-19T12:29:08.565Z,26.32
2023-04-19T12:30:10.924Z,26.51
2023-04-19T12:31:12.826Z,27.06
2023-04-19T12:32:16.242Z,27.12
2023-04-19T12:33:18.462Z,27.73
2023-04-19T12:34:21.035Z,26.91
2023-04-19T12:35:25.578Z,27.25
2023-04-19T12:36:28.510Z,26.99
2023-04-19T12:37:30.407Z,26.82
2023-04-19T12:38:32.538Z,27.72
2023-04-19T12:39:34.528Z,27.36
2023-04-19T12:40:36.765Z,27.36
2023-04-19T12:41:38.875Z,27.27
2023-04-19T12:42:41.068Z,26.74
2023-04-19T12:43:43.002Z,26.74
2023-04-19T12:44:45.221Z,27.68
2023-04-19T12:45:47.221Z,27.52
2023-04-19T12:46:50.118Z,27.03
2023-04-19T12:48:23.447Z,27.54
2023-04-19T12:49:25.921Z,27.03
2023-04-19T12:50:27.986Z,26.95
2023-04-19T12:51:30.709Z,27.03
2023-04-19T12:52:32.777Z,27.18
2023-04-19T12:53:35.031Z,27.21
2023-04-19T12:54:37.082Z,27.24
2023-04-19T12:55:39.203Z,26.99
2023-04-19T12:56:41.244Z,26.86
2023-04-19T12:57:43.397Z,27.30
2023-04-19T12:58:45.496Z,27.05
2023-04-19T12:59:47.797Z,27.00
2023-04-19T13:00:49.781Z,27.11
2023-04-19T13:01:52.558Z,27.47
2023-04-19T13:02:54.756Z,27.50
2023-04-19T13:03:59.310Z,27.53
2023-04-19T13:05:02.190Z,28.16
2023-04-19T13:06:06.843Z,27.87
2023-04-19T13:07:08.914Z,27.65
2023-04-19T13:08:10.960Z,27.74
2023-04-19T13:09:14.856Z,28.29
2023-04-19T13:10:17.744Z,28.28
2023-04-19T13:11:24.316Z,28.39
2023-04-19T13:12:26.696Z,27.77
2023-04-19T13:13:29.593Z,27.71
2023-04-19T13:14:31.844Z,27.84
2023-04-19T13:15:34.137Z,28.02
2023-04-19T13:16:36.317Z,27.68
2023-04-19T13:17:38.450Z,27.84
2023-04-19T13:18:40.563Z,27.74
2023-04-19T13:19:42.514Z,27.67
2023-04-19T13:20:44.637Z,27.53
2023-04-19T13:21:46.793Z,27.60
2023-04-19T13:22:49.164Z,27.62
2023-04-19T13:23:51.510Z,27.66
2023-04-19T13:24:53.751Z,27.87
2023-04-19T13:25:55.767Z,28.16
2023-04-19T13:26:58.034Z,28.22
2023-04-19T13:28:00.180Z,28.25
2023-04-19T13:29:02.340Z,27.90
2023-04-19T13:30:04.968Z,27.71
2023-04-19T13:31:10.531Z,27.95
2023-04-19T13:32:12.763Z,27.31
2023-04-19T13:33:15.046Z,27.50
2023-04-19T13:34:17.979Z,27.57
2023-04-19T13:35:20.406Z,27.70
2023-04-19T13:36:41.355Z,27.74
2023-04-19T13:37:44.584Z,27.71
2023-04-19T13:38:47.423Z,27.20
2023-04-19T13:39:49.706Z,27.34
2023-04-19T13:40:51.854Z,27.18
2023-04-19T13:41:54.126Z,27.07
2023-04-19T13:42:57.112Z,27.52
2023-04-19T13:43:59.237Z,27.25
2023-04-19T13:45:01.269Z,27.77
2023-04-19T13:46:03.913Z,28.34
2023-04-19T13:47:06.126Z,27.22
2023-04-19T13:48:08.359Z,27.06
2023-04-19T13:49:10.348Z,27.12
2023-04-19T13:50:13.354Z,27.05
2023-04-19T13:51:15.553Z,28.79
2023-04-19T13:52:18.683Z,27.95
2023-04-19T13:53:20.993Z,28.56
2023-04-19T13:54:23.195Z,28.78
2023-04-19T13:55:25.243Z,29.38
2023-04-19T13:56:27.594Z,29.04
2023-04-19T13:57:29.767Z,29.62
2023-04-19T13:58:32.033Z,29.39
2023-04-19T13:59:34.167Z,29.78
2023-04-19T14:00:36.469Z,29.54
2023-04-19T14:01:38.705Z,30.45
2023-04-19T14:02:41.807Z,29.77
2023-04-19T14:03:44.538Z,29.91
2023-04-19T14:04:47.174Z,30.41
2023-04-19T14:05:49.363Z,30.03
2023-04-19T14:06:51.569Z,30.49
2023-04-19T14:07:53.780Z,30.54
2023-04-19T14:08:56.028Z,30.32
2023-04-19T14:09:58.040Z,30.39
2023-04-19T14:11:00.330Z,31.87
2023-04-19T14:12:02.598Z,30.59
2023-04-19T14:13:05.597Z,30.71
2023-04-19T14:14:07.743Z,31.04
2023-04-19T14:15:10.652Z,30.82
2023-04-19T14:16:12.711Z,31.05
2023-04-19T14:17:14.810Z,32.99
2023-04-19T14:18:17.195Z,31.09
2023-04-19T14:19:19.382Z,30.92
2023-04-19T14:20:21.489Z,30.99
2023-04-19T14:21:23.594Z,31.05
2023-04-19T14:22:25.625Z,31.47
2023-04-19T14:23:28.086Z,30.94
2023-04-19T14:24:30.087Z,31.31
2023-04-19T14:25:32.201Z,31.01
2023-04-19T14:26:34.140Z,31.45
2023-04-19T14:27:36.320Z,30.97
2023-04-19T14:28:38.373Z,31.15
2023-04-19T14:29:40.627Z,31.67
2023-04-19T14:30:42.591Z,31.82
2023-04-19T14:31:44.726Z,31.56
2023-04-19T14:32:46.730Z,31.56
2023-04-19T14:33:48.904Z,31.71
2023-04-19T14:34:51.860Z,31.23
2023-04-19T14:35:54.338Z,31.64
2023-04-19T14:36:56.308Z,31.35
2023-04-19T14:37:58.377Z,31.72
2023-04-19T14:39:00.340Z,31.36
2023-04-19T14:40:02.780Z,31.68
2023-04-19T14:41:04.988Z,31.91
2023-04-19T14:42:07.205Z,32.27
2023-04-19T14:43:11.516Z,31.89
2023-04-19T14:44:13.713Z,32.56
2023-04-19T14:45:15.888Z,31.68
2023-04-19T14:46:17.960Z,31.93
2023-04-19T14:47:20.810Z,32.54
2023-04-19T14:48:23.049Z,32.15
2023-04-19T14:49:25.005Z,32.62
2023-04-19T14:50:27.178Z,32.81
2023-04-19T14:51:35.405Z,32.39
2023-04-19T14:52:37.517Z,33.54
2023-04-19T14:53:39.510Z,33.33
2023-04-19T14:54:42.447Z,32.84
2023-04-19T14:55:44.482Z,33.10
2023-04-19T14:56:47.235Z,33.01
2023-04-19T14:57:49.186Z,33.21
2023-04-19T14:58:53.195Z,33.16
2023-04-19T14:59:58.199Z,33.21
2023-04-19T15:01:00.389Z,34.13
2023-04-19T15:02:02.678Z,33.93
2023-04-19T15:03:05.308Z,33.98
2023-04-19T15:04:07.757Z,33.64
2023-04-19T15:05:10.304Z,34.15
2023-04-19T15:06:12.490Z,33.84
2023-04-19T15:07:14.532Z,33.70
2023-04-19T15:08:29.583Z,33.98
2023-04-19T15:09:32.691Z,33.88
2023-04-19T15:10:37.642Z,33.89
2023-04-19T15:11:40.391Z,33.80
2023-04-19T15:12:42.569Z,33.52
2023-04-19T15:13:44.690Z,34.06
2023-04-19T15:14:46.811Z,33.78
2023-04-19T15:15:49.120Z,34.20
2023-04-19T15:16:51.272Z,34.83
2023-04-19T15:17:53.309Z,34.46
2023-04-19T15:18:55.497Z,34.96
2023-04-19T15:19:58.784Z,36.18